sensor_id;sensor_type;location;lat;lon;timestamp;P1;durP1;ratioP1;P2;durP2;ratioP2
17727;SDS011;8984;49.268;12.302;2023-04-15T00:02:13;8.67;;;7.50;;
17727;SDS011;8984;49.268;12.302;2023-04-15T00:04:40;8.67;;;7.70;;
17727;SDS011;8984;49.268;12.302;2023-04-15T00:07:07;9.40;;;7.90;;
17727;SDS011;8984;49.268;12.302;2023-04-15T00:09:35;8.37;;;7.20;;
17727;SDS011;8984;49.268;12.302;2023-04-15T00:12:02;8.40;;;7.60;;
17727;SDS011;8984;49.268;12.302;2023-04-15T00:14:29;9.63;;;7.97;;
17727;SDS011;8984;49.268;12.302;2023-04-15T00:16:56;8.80;;;7.90;;
17727;SDS011;8984;49.268;12.302;2023-04-15T00:19:22;8.17;;;7.37;;
17727;SDS011;8984;49.268;12.302;2023-04-15T00:21:49;7.43;;;6.73;;
17727;SDS011;8984;49.268;12.302;2023-04-15T00:24:16;8.63;;;7.07;;
17727;SDS011;8984;49.268;12.302;2023-04-15T00:26:44;7.67;;;6.90;;
17727;SDS011;8984;49.268;12.302;2023-04-15T00:29:11;8.47;;;7.10;;
17727;SDS011;8984;49.268;12.302;2023-04-15T00:31:39;9.27;;;7.87;;
17727;SDS011;8984;49.268;12.302;2023-04-15T00:34:06;8.17;;;7.37;;
17727;SDS011;8984;49.268;12.302;2023-04-15T00:36:33;10.47;;;7.73;;
17727;SDS011;8984;49.268;12.302;2023-04-15T00:39:00;8.13;;;7.30;;
17727;SDS011;8984;49.268;12.302;2023-04-15T00:41:27;8.70;;;7.87;;
17727;SDS011;8984;49.268;12.302;2023-04-15T00:43:56;7.37;;;6.67;;
17727;SDS011;8984;49.268;12.302;2023-04-15T00:46:23;7.33;;;6.67;;
17727;SDS011;8984;49.268;12.302;2023-04-15T00:48:51;7.33;;;6.63;;
17727;SDS011;8984;49.268;12.302;2023-04-15T00:51:20;7.43;;;6.63;;
17727;SDS011;8984;49.268;12.302;2023-04-15T00:53:46;7.43;;;6.70;;
17727;SDS011;8984;49.268;12.302;2023-04-15T00:56:13;7.20;;;6.50;;
17727;SDS011;8984;49.268;12.302;2023-04-15T00:58:40;7.17;;;6.47;;
17727;SDS011;8984;49.268;12.302;2023-04-15T01:01:09;7.97;;;7.17;;
17727;SDS011;8984;49.268;12.302;2023-04-15T01:03:35;7.90;;;7.10;;
17727;SDS011;8984;49.268;12.302;2023-04-15T01:06:02;7.60;;;6.80;;
17727;SDS011;8984;49.268;12.302;2023-04-15T01:08:29;7.17;;;6.43;;
17727;SDS011;8984;49.268;12.302;2023-04-15T01:10:57;7.80;;;6.93;;
17727;SDS011;8984;49.268;12.302;2023-04-15T01:13:25;7.00;;;6.30;;
17727;SDS011;8984;49.268;12.302;2023-04-15T01:15:52;7.63;;;6.90;;
17727;SDS011;8984;49.268;12.302;2023-04-15T01:18:20;6.77;;;6.10;;
17727;SDS011;8984;49.268;12.302;2023-04-15T01:20:47;6.93;;;6.23;;
17727;SDS011;8984;49.268;12.302;2023-04-15T01:23:14;7.53;;;6.77;;
17727;SDS011;8984;49.268;12.302;2023-04-15T01:25:42;6.33;;;5.73;;
17727;SDS011;8984;49.268;12.302;2023-04-15T01:28:10;6.70;;;5.80;;
17727;SDS011;8984;49.268;12.302;2023-04-15T01:30:37;7.40;;;6.70;;
17727;SDS011;8984;49.268;12.302;2023-04-15T01:33:04;6.60;;;5.90;;
17727;SDS011;8984;49.268;12.302;2023-04-15T01:35:31;7.00;;;6.33;;
17727;SDS011;8984;49.268;12.302;2023-04-15T01:37:59;7.60;;;6.57;;
17727;SDS011;8984;49.268;12.302;2023-04-15T01:40:31;7.63;;;6.83;;
17727;SDS011;8984;49.268;12.302;2023-04-15T01:42:59;8.70;;;7.80;;
17727;SDS011;8984;49.268;12.302;2023-04-15T01:45:28;8.73;;;7.20;;
17727;SDS011;8984;49.268;12.302;2023-04-15T01:47:55;7.67;;;6.97;;
17727;SDS011;8984;49.268;12.302;2023-04-15T01:50:21;7.80;;;6.97;;
17727;SDS011;8984;49.268;12.302;2023-04-15T01:52:49;7.93;;;7.13;;
17727;SDS011;8984;49.268;12.302;2023-04-15T01:55:16;7.87;;;6.50;;
17727;SDS011;8984;49.268;12.302;2023-04-15T01:57:43;8.07;;;7.27;;
17727;SDS011;8984;49.268;12.302;2023-04-15T02:00:12;8.30;;;7.50;;
17727;SDS011;8984;49.268;12.302;2023-04-15T02:02:39;6.93;;;6.23;;
17727;SDS011;8984;49.268;12.302;2023-04-15T02:05:06;8.67;;;7.27;;
17727;SDS011;8984;49.268;12.302;2023-04-15T02:07:33;7.20;;;6.50;;
17727;SDS011;8984;49.268;12.302;2023-04-15T02:10:00;7.33;;;6.63;;
17727;SDS011;8984;49.268;12.302;2023-04-15T02:12:28;7.30;;;6.60;;
17727;SDS011;8984;49.268;12.302;2023-04-15T02:14:54;7.20;;;6.50;;
17727;SDS011;8984;49.268;12.302;2023-04-15T02:17:23;8.50;;;7.60;;
17727;SDS011;8984;49.268;12.302;2023-04-15T02:19:50;8.77;;;7.47;;
17727;SDS011;8984;49.268;12.302;2023-04-15T02:22:16;7.67;;;6.97;;
17727;SDS011;8984;49.268;12.302;2023-04-15T02:24:43;7.13;;;5.57;;
17727;SDS011;8984;49.268;12.302;2023-04-15T02:27:14;7.20;;;6.50;;
17727;SDS011;8984;49.268;12.302;2023-04-15T02:29:42;6.53;;;5.83;;
17727;SDS011;8984;49.268;12.302;2023-04-15T02:32:10;7.90;;;7.13;;
17727;SDS011;8984;49.268;12.302;2023-04-15T02:34:38;6.37;;;5.77;;
17727;SDS011;8984;49.268;12.302;2023-04-15T02:37:06;9.27;;;6.73;;
17727;SDS011;8984;49.268;12.302;2023-04-15T02:39:33;8.13;;;6.20;;
17727;SDS011;8984;49.268;12.302;2023-04-15T02:42:00;6.80;;;6.20;;
17727;SDS011;8984;49.268;12.302;2023-04-15T02:44:27;6.57;;;5.97;;
17727;SDS011;8984;49.268;12.302;2023-04-15T02:46:59;6.97;;;6.37;;
17727;SDS011;8984;49.268;12.302;2023-04-15T02:49:25;6.10;;;5.50;;
17727;SDS011;8984;49.268;12.302;2023-04-15T02:51:55;7.77;;;5.67;;
17727;SDS011;8984;49.268;12.302;2023-04-15T02:54:24;6.40;;;5.80;;
17727;SDS011;8984;49.268;12.302;2023-04-15T02:56:52;6.70;;;5.87;;
17727;SDS011;8984;49.268;12.302;2023-04-15T02:59:20;6.00;;;5.40;;
17727;SDS011;8984;49.268;12.302;2023-04-15T03:01:47;6.33;;;5.53;;
17727;SDS011;8984;49.268;12.302;2023-04-15T03:04:14;6.57;;;5.53;;
17727;SDS011;8984;49.268;12.302;2023-04-15T03:06:41;6.87;;;5.77;;
17727;SDS011;8984;49.268;12.302;2023-04-15T03:09:09;6.73;;;5.70;;
17727;SDS011;8984;49.268;12.302;2023-04-15T03:11:36;7.30;;;5.80;;
17727;SDS011;8984;49.268;12.302;2023-04-15T03:14:05;6.83;;;5.70;;
17727;SDS011;8984;49.268;12.302;2023-04-15T03:16:32;7.07;;;6.00;;
17727;SDS011;8984;49.268;12.302;2023-04-15T03:18:59;6.20;;;5.60;;
17727;SDS011;8984;49.268;12.302;2023-04-15T03:21:26;6.73;;;6.07;;
17727;SDS011;8984;49.268;12.302;2023-04-15T03:23:52;6.43;;;5.83;;
17727;SDS011;8984;49.268;12.302;2023-04-15T03:26:25;6.60;;;5.90;;
17727;SDS011;8984;49.268;12.302;2023-04-15T03:28:53;6.50;;;5.90;;
17727;SDS011;8984;49.268;12.302;2023-04-15T03:31:20;6.33;;;5.73;;
17727;SDS011;8984;49.268;12.302;2023-04-15T03:33:46;8.10;;;6.50;;
17727;SDS011;8984;49.268;12.302;2023-04-15T03:36:13;7.30;;;6.60;;
17727;SDS011;8984;49.268;12.302;2023-04-15T03:38:40;6.03;;;5.50;;
17727;SDS011;8984;49.268;12.302;2023-04-15T03:41:07;6.70;;;6.10;;
17727;SDS011;8984;49.268;12.302;2023-04-15T03:43:35;7.37;;;5.70;;
17727;SDS011;8984;49.268;12.302;2023-04-15T03:46:02;8.40;;;5.43;;
17727;SDS011;8984;49.268;12.302;2023-04-15T03:48:29;7.20;;;6.53;;
17727;SDS011;8984;49.268;12.302;2023-04-15T03:50:56;7.27;;;6.57;;
17727;SDS011;8984;49.268;12.302;2023-04-15T03:53:23;6.70;;;6.00;;
17727;SDS011;8984;49.268;12.302;2023-04-15T03:55:49;5.60;;;5.10;;
17727;SDS011;8984;49.268;12.302;2023-04-15T03:58:16;7.47;;;6.77;;
17727;SDS011;8984;49.268;12.302;2023-04-15T04:00:44;7.07;;;5.70;;
17727;SDS011;8984;49.268;12.302;2023-04-15T04:03:11;6.47;;;5.80;;
17727;SDS011;8984;49.268;12.302;2023-04-15T04:05:38;7.30;;;6.60;;
17727;SDS011;8984;49.268;12.302;2023-04-15T04:08:05;6.83;;;6.13;;
17727;SDS011;8984;49.268;12.302;2023-04-15T04:10:32;7.67;;;6.63;;
17727;SDS011;8984;49.268;12.302;2023-04-15T04:12:59;7.07;;;6.40;;
17727;SDS011;8984;49.268;12.302;2023-04-15T04:15:26;7.03;;;6.00;;
17727;SDS011;8984;49.268;12.302;2023-04-15T04:17:54;8.23;;;6.67;;
17727;SDS011;8984;49.268;12.302;2023-04-15T04:20:21;7.50;;;6.70;;
17727;SDS011;8984;49.268;12.302;2023-04-15T04:22:48;7.20;;;6.50;;
17727;SDS011;8984;49.268;12.302;2023-04-15T04:25:15;7.17;;;6.40;;
17727;SDS011;8984;49.268;12.302;2023-04-15T04:27:42;7.37;;;6.67;;
17727;SDS011;8984;49.268;12.302;2023-04-15T04:30:10;8.43;;;7.10;;
17727;SDS011;8984;49.268;12.302;2023-04-15T04:32:37;6.90;;;6.20;;
17727;SDS011;8984;49.268;12.302;2023-04-15T04:35:05;7.37;;;6.67;;
17727;SDS011;8984;49.268;12.302;2023-04-15T04:37:33;7.57;;;6.67;;
17727;SDS011;8984;49.268;12.302;2023-04-15T04:39:59;7.60;;;6.80;;
17727;SDS011;8984;49.268;12.302;2023-04-15T04:42:26;7.43;;;6.73;;
17727;SDS011;8984;49.268;12.302;2023-04-15T04:44:53;6.37;;;5.73;;
17727;SDS011;8984;49.268;12.302;2023-04-15T04:47:19;6.70;;;6.10;;
17727;SDS011;8984;49.268;12.302;2023-04-15T04:49:46;7.13;;;6.43;;
17727;SDS011;8984;49.268;12.302;2023-04-15T04:52:14;6.57;;;5.97;;
17727;SDS011;8984;49.268;12.302;2023-04-15T04:54:41;7.47;;;6.40;;
17727;SDS011;8984;49.268;12.302;2023-04-15T04:57:08;6.17;;;5.30;;
17727;SDS011;8984;49.268;12.302;2023-04-15T04:59:37;6.97;;;5.80;;
17727;SDS011;8984;49.268;12.302;2023-04-15T05:02:04;6.17;;;5.23;;
17727;SDS011;8984;49.268;12.302;2023-04-15T05:04:31;6.00;;;5.40;;
17727;SDS011;8984;49.268;12.302;2023-04-15T05:06:58;6.57;;;5.60;;
17727;SDS011;8984;49.268;12.302;2023-04-15T05:09:26;6.37;;;5.70;;
17727;SDS011;8984;49.268;12.302;2023-04-15T05:11:56;7.20;;;6.50;;
17727;SDS011;8984;49.268;12.302;2023-04-15T05:14:22;6.40;;;5.80;;
17727;SDS011;8984;49.268;12.302;2023-04-15T05:16:49;6.60;;;5.90;;
17727;SDS011;8984;49.268;12.302;2023-04-15T05:19:16;8.33;;;5.63;;
17727;SDS011;8984;49.268;12.302;2023-04-15T05:21:43;6.13;;;5.23;;
17727;SDS011;8984;49.268;12.302;2023-04-15T05:24:10;6.23;;;5.63;;
17727;SDS011;8984;49.268;12.302;2023-04-15T05:26:38;5.43;;;4.93;;
17727;SDS011;8984;49.268;12.302;2023-04-15T05:29:05;3.97;;;3.63;;
17727;SDS011;8984;49.268;12.302;2023-04-15T05:31:31;4.33;;;3.93;;
17727;SDS011;8984;49.268;12.302;2023-04-15T05:33:58;5.13;;;4.40;;
17727;SDS011;8984;49.268;12.302;2023-04-15T05:36:25;4.40;;;3.87;;
17727;SDS011;8984;49.268;12.302;2023-04-15T05:38:52;5.00;;;3.80;;
17727;SDS011;8984;49.268;12.302;2023-04-15T05:41:19;3.97;;;3.57;;
17727;SDS011;8984;49.268;12.302;2023-04-15T05:43:48;6.53;;;3.00;;
17727;SDS011;8984;49.268;12.302;2023-04-15T05:46:15;3.10;;;2.83;;
17727;SDS011;8984;49.268;12.302;2023-04-15T05:48:42;2.57;;;2.37;;
17727;SDS011;8984;49.268;12.302;2023-04-15T05:51:08;3.57;;;3.20;;
17727;SDS011;8984;49.268;12.302;2023-04-15T05:53:35;3.33;;;2.90;;
17727;SDS011;8984;49.268;12.302;2023-04-15T05:56:03;4.50;;;3.10;;
17727;SDS011;8984;49.268;12.302;2023-04-15T05:58:29;5.30;;;3.60;;
17727;SDS011;8984;49.268;12.302;2023-04-15T06:00:58;4.13;;;3.37;;
17727;SDS011;8984;49.268;12.302;2023-04-15T06:03:25;3.10;;;2.80;;
17727;SDS011;8984;49.268;12.302;2023-04-15T06:05:51;2.87;;;2.60;;
17727;SDS011;8984;49.268;12.302;2023-04-15T06:08:18;2.63;;;2.40;;
17727;SDS011;8984;49.268;12.302;2023-04-15T06:10:45;4.17;;;3.73;;
17727;SDS011;8984;49.268;12.302;2023-04-15T06:13:12;3.47;;;3.10;;
17727;SDS011;8984;49.268;12.302;2023-04-15T06:15:39;3.50;;;3.20;;
17727;SDS011;8984;49.268;12.302;2023-04-15T06:18:07;4.20;;;3.47;;
17727;SDS011;8984;49.268;12.302;2023-04-15T06:20:34;4.13;;;3.73;;
17727;SDS011;8984;49.268;12.302;2023-04-15T06:23:01;3.70;;;3.40;;
17727;SDS011;8984;49.268;12.302;2023-04-15T06:25:27;3.87;;;3.40;;
17727;SDS011;8984;49.268;12.302;2023-04-15T06:27:54;4.10;;;3.70;;
17727;SDS011;8984;49.268;12.302;2023-04-15T06:30:21;4.20;;;3.80;;
17727;SDS011;8984;49.268;12.302;2023-04-15T06:32:48;4.07;;;3.40;;
17727;SDS011;8984;49.268;12.302;2023-04-15T06:35:16;5.47;;;3.67;;
17727;SDS011;8984;49.268;12.302;2023-04-15T06:37:43;4.30;;;3.90;;
17727;SDS011;8984;49.268;12.302;2023-04-15T06:40:10;4.30;;;3.80;;
17727;SDS011;8984;49.268;12.302;2023-04-15T06:42:37;4.30;;;3.57;;
17727;SDS011;8984;49.268;12.302;2023-04-15T06:45:04;5.47;;;3.87;;
17727;SDS011;8984;49.268;12.302;2023-04-15T06:47:32;3.40;;;3.10;;
17727;SDS011;8984;49.268;12.302;2023-04-15T06:49:59;3.30;;;3.00;;
17727;SDS011;8984;49.268;12.302;2023-04-15T06:52:27;3.50;;;3.20;;
17727;SDS011;8984;49.268;12.302;2023-04-15T06:54:54;3.60;;;3.30;;
17727;SDS011;8984;49.268;12.302;2023-04-15T06:57:21;3.60;;;3.30;;
17727;SDS011;8984;49.268;12.302;2023-04-15T06:59:48;3.77;;;3.47;;
17727;SDS011;8984;49.268;12.302;2023-04-15T07:02:16;5.17;;;4.67;;
17727;SDS011;8984;49.268;12.302;2023-04-15T07:04:43;3.87;;;3.53;;
17727;SDS011;8984;49.268;12.302;2023-04-15T07:07:10;8.70;;;7.50;;
17727;SDS011;8984;49.268;12.302;2023-04-15T07:09:38;4.40;;;4.00;;
17727;SDS011;8984;49.268;12.302;2023-04-15T07:12:05;4.30;;;3.90;;
17727;SDS011;8984;49.268;12.302;2023-04-15T07:14:32;6.53;;;4.37;;
17727;SDS011;8984;49.268;12.302;2023-04-15T07:16:59;5.47;;;4.00;;
17727;SDS011;8984;49.268;12.302;2023-04-15T07:19:26;9.30;;;7.60;;
17727;SDS011;8984;49.268;12.302;2023-04-15T07:21:53;4.37;;;3.97;;
17727;SDS011;8984;49.268;12.302;2023-04-15T07:24:19;3.33;;;3.03;;
17727;SDS011;8984;49.268;12.302;2023-04-15T07:26:52;3.30;;;3.00;;
17727;SDS011;8984;49.268;12.302;2023-04-15T07:29:19;3.47;;;2.87;;
17727;SDS011;8984;49.268;12.302;2023-04-15T07:31:46;2.80;;;2.60;;
17727;SDS011;8984;49.268;12.302;2023-04-15T07:34:13;2.57;;;2.37;;
17727;SDS011;8984;49.268;12.302;2023-04-15T07:36:40;2.60;;;2.37;;
17727;SDS011;8984;49.268;12.302;2023-04-15T07:39:07;1.87;;;1.77;;
17727;SDS011;8984;49.268;12.302;2023-04-15T07:41:34;2.00;;;1.90;;
17727;SDS011;8984;49.268;12.302;2023-04-15T07:44:02;2.07;;;1.87;;
17727;SDS011;8984;49.268;12.302;2023-04-15T07:46:29;2.07;;;1.87;;
17727;SDS011;8984;49.268;12.302;2023-04-15T07:48:56;2.03;;;1.90;;
17727;SDS011;8984;49.268;12.302;2023-04-15T07:51:22;1.80;;;1.67;;
17727;SDS011;8984;49.268;12.302;2023-04-15T07:53:49;1.90;;;1.80;;
17727;SDS011;8984;49.268;12.302;2023-04-15T07:56:16;2.30;;;2.10;;
17727;SDS011;8984;49.268;12.302;2023-04-15T07:58:43;8.20;;;4.97;;
17727;SDS011;8984;49.268;12.302;2023-04-15T08:01:11;35.93;;;14.40;;
17727;SDS011;8984;49.268;12.302;2023-04-15T08:03:38;1.90;;;1.70;;
17727;SDS011;8984;49.268;12.302;2023-04-15T08:06:05;2.13;;;1.93;;
17727;SDS011;8984;49.268;12.302;2023-04-15T08:08:33;2.97;;;2.67;;
17727;SDS011;8984;49.268;12.302;2023-04-15T08:11:00;1.77;;;1.67;;
17727;SDS011;8984;49.268;12.302;2023-04-15T08:13:27;1.80;;;1.70;;
17727;SDS011;8984;49.268;12.302;2023-04-15T08:18:42;1.77;;;1.67;;
17727;SDS011;8984;49.268;12.302;2023-04-15T08:21:09;5.13;;;3.40;;
17727;SDS011;8984;49.268;12.302;2023-04-15T08:23:36;2.03;;;1.93;;
17727;SDS011;8984;49.268;12.302;2023-04-15T08:26:03;1.90;;;1.80;;
17727;SDS011;8984;49.268;12.302;2023-04-15T08:28:31;1.57;;;1.47;;
17727;SDS011;8984;49.268;12.302;2023-04-15T08:30:58;2.20;;;2.00;;
17727;SDS011;8984;49.268;12.302;2023-04-15T08:33:26;2.07;;;1.87;;
17727;SDS011;8984;49.268;12.302;2023-04-15T08:35:53;1.60;;;1.50;;
17727;SDS011;8984;49.268;12.302;2023-04-15T08:38:20;1.70;;;1.60;;
17727;SDS011;8984;49.268;12.302;2023-04-15T08:40:47;2.00;;;1.80;;
17727;SDS011;8984;49.268;12.302;2023-04-15T08:43:17;1.87;;;1.70;;
17727;SDS011;8984;49.268;12.302;2023-04-15T08:45:46;2.33;;;1.80;;
17727;SDS011;8984;49.268;12.302;2023-04-15T08:48:15;2.17;;;1.80;;
17727;SDS011;8984;49.268;12.302;2023-04-15T08:50:44;2.17;;;1.97;;
17727;SDS011;8984;49.268;12.302;2023-04-15T08:53:12;2.40;;;2.20;;
17727;SDS011;8984;49.268;12.302;2023-04-15T08:55:41;1.93;;;1.80;;
17727;SDS011;8984;49.268;12.302;2023-04-15T08:58:10;1.90;;;1.80;;
17727;SDS011;8984;49.268;12.302;2023-04-15T09:00:37;2.30;;;2.10;;
17727;SDS011;8984;49.268;12.302;2023-04-15T09:03:04;3.10;;;2.10;;
17727;SDS011;8984;49.268;12.302;2023-04-15T09:05:32;3.10;;;2.53;;
17727;SDS011;8984;49.268;12.302;2023-04-15T09:08:00;3.40;;;3.03;;
17727;SDS011;8984;49.268;12.302;2023-04-15T09:10:28;2.43;;;2.17;;
17727;SDS011;8984;49.268;12.302;2023-04-15T09:12:55;2.30;;;2.10;;
17727;SDS011;8984;49.268;12.302;2023-04-15T09:15:23;2.87;;;2.00;;
17727;SDS011;8984;49.268;12.302;2023-04-15T09:17:51;1.90;;;1.70;;
17727;SDS011;8984;49.268;12.302;2023-04-15T09:20:18;2.03;;;1.90;;
17727;SDS011;8984;49.268;12.302;2023-04-15T09:22:46;3.00;;;2.17;;
17727;SDS011;8984;49.268;12.302;2023-04-15T09:25:27;2.27;;;1.90;;
17727;SDS011;8984;49.268;12.302;2023-04-15T09:27:55;2.40;;;2.20;;
17727;SDS011;8984;49.268;12.302;2023-04-15T09:30:23;2.00;;;1.90;;
17727;SDS011;8984;49.268;12.302;2023-04-15T09:32:51;2.00;;;1.90;;
17727;SDS011;8984;49.268;12.302;2023-04-15T09:35:19;2.20;;;1.97;;
17727;SDS011;8984;49.268;12.302;2023-04-15T09:37:46;1.90;;;1.70;;
17727;SDS011;8984;49.268;12.302;2023-04-15T09:40:14;1.80;;;1.67;;
17727;SDS011;8984;49.268;12.302;2023-04-15T09:42:57;1.70;;;1.60;;
17727;SDS011;8984;49.268;12.302;2023-04-15T09:45:24;2.63;;;1.80;;
17727;SDS011;8984;49.268;12.302;2023-04-15T09:47:51;1.60;;;1.50;;
17727;SDS011;8984;49.268;12.302;2023-04-15T09:50:18;1.83;;;1.70;;
17727;SDS011;8984;49.268;12.302;2023-04-15T09:52:45;2.20;;;1.87;;
17727;SDS011;8984;49.268;12.302;2023-04-15T09:55:13;1.80;;;1.70;;
17727;SDS011;8984;49.268;12.302;2023-04-15T09:57:41;2.57;;;2.10;;
17727;SDS011;8984;49.268;12.302;2023-04-15T10:00:11;2.60;;;1.60;;
17727;SDS011;8984;49.268;12.302;2023-04-15T10:02:39;1.80;;;1.70;;
17727;SDS011;8984;49.268;12.302;2023-04-15T10:05:07;1.50;;;1.40;;
17727;SDS011;8984;49.268;12.302;2023-04-15T10:07:37;1.43;;;1.33;;
17727;SDS011;8984;49.268;12.302;2023-04-15T10:10:05;2.03;;;1.70;;
17727;SDS011;8984;49.268;12.302;2023-04-15T10:12:33;1.67;;;1.57;;
17727;SDS011;8984;49.268;12.302;2023-04-15T10:15:03;1.73;;;1.63;;
17727;SDS011;8984;49.268;12.302;2023-04-15T10:17:32;1.63;;;1.53;;
17727;SDS011;8984;49.268;12.302;2023-04-15T10:20:01;1.70;;;1.60;;
17727;SDS011;8984;49.268;12.302;2023-04-15T10:22:30;1.90;;;1.50;;
17727;SDS011;8984;49.268;12.302;2023-04-15T10:24:57;1.63;;;1.53;;
17727;SDS011;8984;49.268;12.302;2023-04-15T10:27:25;1.80;;;1.70;;
17727;SDS011;8984;49.268;12.302;2023-04-15T10:29:53;1.97;;;1.77;;
17727;SDS011;8984;49.268;12.302;2023-04-15T10:32:20;2.80;;;1.80;;
17727;SDS011;8984;49.268;12.302;2023-04-15T10:34:50;1.90;;;1.80;;
17727;SDS011;8984;49.268;12.302;2023-04-15T10:37:21;1.53;;;1.43;;
17727;SDS011;8984;49.268;12.302;2023-04-15T10:39:58;1.67;;;1.57;;
17727;SDS011;8984;49.268;12.302;2023-04-15T10:42:32;1.60;;;1.50;;
17727;SDS011;8984;49.268;12.302;2023-04-15T10:44:59;1.40;;;1.30;;
17727;SDS011;8984;49.268;12.302;2023-04-15T10:47:26;1.83;;;1.33;;
17727;SDS011;8984;49.268;12.302;2023-04-15T10:49:57;1.90;;;1.33;;
17727;SDS011;8984;49.268;12.302;2023-04-15T10:52:26;1.90;;;1.27;;
17727;SDS011;8984;49.268;12.302;2023-04-15T10:55:00;2.40;;;1.50;;
17727;SDS011;8984;49.268;12.302;2023-04-15T10:57:33;1.50;;;1.40;;
17727;SDS011;8984;49.268;12.302;2023-04-15T11:00:03;1.60;;;1.50;;
17727;SDS011;8984;49.268;12.302;2023-04-15T11:02:40;2.83;;;1.73;;
17727;SDS011;8984;49.268;12.302;2023-04-15T11:05:10;1.67;;;1.57;;
17727;SDS011;8984;49.268;12.302;2023-04-15T11:07:39;1.73;;;1.27;;
17727;SDS011;8984;49.268;12.302;2023-04-15T11:13:16;1.63;;;1.40;;
17727;SDS011;8984;49.268;12.302;2023-04-15T11:15:46;1.47;;;1.20;;
17727;SDS011;8984;49.268;12.302;2023-04-15T11:18:16;1.40;;;1.30;;
17727;SDS011;8984;49.268;12.302;2023-04-15T11:20:46;1.80;;;1.50;;
17727;SDS011;8984;49.268;12.302;2023-04-15T11:23:14;1.93;;;1.70;;
17727;SDS011;8984;49.268;12.302;2023-04-15T11:25:42;1.60;;;1.50;;
17727;SDS011;8984;49.268;12.302;2023-04-15T11:28:10;2.03;;;1.50;;
17727;SDS011;8984;49.268;12.302;2023-04-15T11:30:38;1.83;;;1.70;;
17727;SDS011;8984;49.268;12.302;2023-04-15T11:33:07;1.53;;;1.40;;
17727;SDS011;8984;49.268;12.302;2023-04-15T11:35:36;1.50;;;1.40;;
17727;SDS011;8984;49.268;12.302;2023-04-15T11:38:07;1.77;;;1.60;;
17727;SDS011;8984;49.268;12.302;2023-04-15T11:40:35;1.50;;;1.40;;
17727;SDS011;8984;49.268;12.302;2023-04-15T11:43:04;1.40;;;1.30;;
17727;SDS011;8984;49.268;12.302;2023-04-15T11:45:31;1.70;;;1.60;;
17727;SDS011;8984;49.268;12.302;2023-04-15T11:48:05;1.90;;;1.80;;
17727;SDS011;8984;49.268;12.302;2023-04-15T11:50:34;1.80;;;1.70;;
17727;SDS011;8984;49.268;12.302;2023-04-15T11:53:01;2.73;;;2.53;;
17727;SDS011;8984;49.268;12.302;2023-04-15T11:55:32;2.50;;;2.30;;
17727;SDS011;8984;49.268;12.302;2023-04-15T11:58:08;2.40;;;2.20;;
17727;SDS011;8984;49.268;12.302;2023-04-15T12:00:36;2.50;;;2.30;;
17727;SDS011;8984;49.268;12.302;2023-04-15T12:03:16;3.30;;;2.20;;
17727;SDS011;8984;49.268;12.302;2023-04-15T12:06:03;2.93;;;1.90;;
17727;SDS011;8984;49.268;12.302;2023-04-15T12:08:48;2.00;;;1.90;;
17727;SDS011;8984;49.268;12.302;2023-04-15T12:11:20;2.40;;;1.77;;
17727;SDS011;8984;49.268;12.302;2023-04-15T12:13:54;2.00;;;1.80;;
17727;SDS011;8984;49.268;12.302;2023-04-15T12:16:23;2.93;;;2.40;;
17727;SDS011;8984;49.268;12.302;2023-04-15T12:18:50;2.97;;;2.47;;
17727;SDS011;8984;49.268;12.302;2023-04-15T12:21:20;2.33;;;2.10;;
17727;SDS011;8984;49.268;12.302;2023-04-15T12:23:47;2.43;;;2.23;;
17727;SDS011;8984;49.268;12.302;2023-04-15T12:26:15;2.43;;;2.23;;
17727;SDS011;8984;49.268;12.302;2023-04-15T12:28:43;1.90;;;1.80;;
17727;SDS011;8984;49.268;12.302;2023-04-15T12:31:10;2.17;;;1.97;;
17727;SDS011;8984;49.268;12.302;2023-04-15T12:33:38;2.27;;;2.03;;
17727;SDS011;8984;49.268;12.302;2023-04-15T12:36:05;3.17;;;2.13;;
17727;SDS011;8984;49.268;12.302;2023-04-15T12:38:32;2.83;;;2.20;;
17727;SDS011;8984;49.268;12.302;2023-04-15T12:40:59;2.20;;;2.00;;
17727;SDS011;8984;49.268;12.302;2023-04-15T12:43:25;2.50;;;2.20;;
17727;SDS011;8984;49.268;12.302;2023-04-15T12:45:53;2.30;;;2.10;;
17727;SDS011;8984;49.268;12.302;2023-04-15T12:48:20;5.70;;;3.20;;
17727;SDS011;8984;49.268;12.302;2023-04-15T12:50:47;3.13;;;2.67;;
17727;SDS011;8984;49.268;12.302;2023-04-15T12:53:14;2.77;;;2.53;;
17727;SDS011;8984;49.268;12.302;2023-04-15T12:55:41;3.00;;;2.70;;
17727;SDS011;8984;49.268;12.302;2023-04-15T12:58:08;3.47;;;2.60;;
17727;SDS011;8984;49.268;12.302;2023-04-15T13:00:35;2.33;;;2.13;;
17727;SDS011;8984;49.268;12.302;2023-04-15T13:03:04;3.13;;;2.87;;
17727;SDS011;8984;49.268;12.302;2023-04-15T13:05:30;3.10;;;2.43;;
17727;SDS011;8984;49.268;12.302;2023-04-15T13:07:57;2.83;;;2.57;;
17727;SDS011;8984;49.268;12.302;2023-04-15T13:10:24;2.90;;;2.60;;
17727;SDS011;8984;49.268;12.302;2023-04-15T13:12:52;3.70;;;3.40;;
17727;SDS011;8984;49.268;12.302;2023-04-15T13:15:20;3.50;;;3.20;;
17727;SDS011;8984;49.268;12.302;2023-04-15T13:17:47;4.40;;;3.00;;
17727;SDS011;8984;49.268;12.302;2023-04-15T13:20:16;4.20;;;3.10;;
17727;SDS011;8984;49.268;12.302;2023-04-15T13:22:42;3.43;;;3.13;;
17727;SDS011;8984;49.268;12.302;2023-04-15T13:25:09;6.07;;;2.90;;
17727;SDS011;8984;49.268;12.302;2023-04-15T13:27:36;2.93;;;2.67;;
17727;SDS011;8984;49.268;12.302;2023-04-15T13:30:03;2.93;;;2.73;;
17727;SDS011;8984;49.268;12.302;2023-04-15T13:32:31;3.10;;;2.80;;
17727;SDS011;8984;49.268;12.302;2023-04-15T13:34:58;2.70;;;2.47;;
17727;SDS011;8984;49.268;12.302;2023-04-15T13:37:26;3.20;;;2.60;;
17727;SDS011;8984;49.268;12.302;2023-04-15T13:39:54;3.30;;;3.00;;
17727;SDS011;8984;49.268;12.302;2023-04-15T13:42:21;3.00;;;2.80;;
17727;SDS011;8984;49.268;12.302;2023-04-15T13:44:48;3.40;;;3.10;;
17727;SDS011;8984;49.268;12.302;2023-04-15T13:47:15;3.50;;;2.90;;
17727;SDS011;8984;49.268;12.302;2023-04-15T13:49:42;3.20;;;2.90;;
17727;SDS011;8984;49.268;12.302;2023-04-15T13:52:10;2.87;;;2.67;;
17727;SDS011;8984;49.268;12.302;2023-04-15T13:54:38;3.40;;;3.10;;
17727;SDS011;8984;49.268;12.302;2023-04-15T13:57:05;3.07;;;2.77;;
17727;SDS011;8984;49.268;12.302;2023-04-15T13:59:32;3.67;;;3.00;;
17727;SDS011;8984;49.268;12.302;2023-04-15T14:01:59;5.03;;;3.13;;
17727;SDS011;8984;49.268;12.302;2023-04-15T14:04:26;3.10;;;2.57;;
17727;SDS011;8984;49.268;12.302;2023-04-15T14:06:52;3.43;;;2.80;;
17727;SDS011;8984;49.268;12.302;2023-04-15T14:09:19;3.43;;;2.93;;
17727;SDS011;8984;49.268;12.302;2023-04-15T14:11:49;3.53;;;3.20;;
17727;SDS011;8984;49.268;12.302;2023-04-15T14:14:16;2.97;;;2.70;;
17727;SDS011;8984;49.268;12.302;2023-04-15T14:16:43;3.30;;;3.00;;
17727;SDS011;8984;49.268;12.302;2023-04-15T14:19:09;3.93;;;3.30;;
17727;SDS011;8984;49.268;12.302;2023-04-15T14:21:36;3.47;;;3.17;;
17727;SDS011;8984;49.268;12.302;2023-04-15T14:24:03;4.47;;;3.20;;
17727;SDS011;8984;49.268;12.302;2023-04-15T14:26:31;4.60;;;3.43;;
17727;SDS011;8984;49.268;12.302;2023-04-15T14:28:59;3.53;;;3.23;;
17727;SDS011;8984;49.268;12.302;2023-04-15T14:31:25;3.90;;;3.20;;
17727;SDS011;8984;49.268;12.302;2023-04-15T14:33:52;3.00;;;2.80;;
17727;SDS011;8984;49.268;12.302;2023-04-15T14:36:19;3.93;;;3.33;;
17727;SDS011;8984;49.268;12.302;2023-04-15T14:38:46;3.40;;;3.10;;
17727;SDS011;8984;49.268;12.302;2023-04-15T14:41:12;3.50;;;3.20;;
17727;SDS011;8984;49.268;12.302;2023-04-15T14:43:40;4.70;;;4.10;;
17727;SDS011;8984;49.268;12.302;2023-04-15T14:46:09;3.70;;;3.30;;
17727;SDS011;8984;49.268;12.302;2023-04-15T14:48:36;2.83;;;2.63;;
17727;SDS011;8984;49.268;12.302;2023-04-15T14:51:03;3.97;;;3.13;;
17727;SDS011;8984;49.268;12.302;2023-04-15T14:53:29;3.63;;;3.33;;
17727;SDS011;8984;49.268;12.302;2023-04-15T14:55:58;3.53;;;3.00;;
17727;SDS011;8984;49.268;12.302;2023-04-15T14:58:24;3.50;;;3.20;;